Time;durP1;ratioP1;P1;durP2;ratioP2;P2;SDS_P1;SDS_P2;PMS_P1;PMS_P2;Temp;Humidity;BMP_temperature;BMP_pressure;BME280_temperature;BME280_humidity;BME280_pressure;Samples;Min_cycle;Max_cycle;Signal;HPM_P1;HPM_P2
2022/03/11 00:01:13;;;;;;;174.07;64.95;;;;;;;-7.60;54.30;102427.72;1732031;82;25653;-68
2022/03/11 00:03:40;;;;;;;137.28;50.65;;;;;;;-7.64;54.43;102431.56;1745606;81;27376;-69
2022/03/11 00:06:06;;;;;;;89.87;34.60;;;;;;;-7.64;54.63;102436.36;1748569;82;26147;-69
2022/03/11 00:08:33;;;;;;;72.22;28.62;;;;;;;-7.71;54.73;102433.94;1748895;82;25830;-68
2022/03/11 00:10:59;;;;;;;52.90;23.57;;;;;;;-7.74;54.87;102436.34;1748843;82;25914;-69
2022/03/11 00:13:25;;;;;;;51.28;23.32;;;;;;;-7.77;54.98;102437.91;1748771;82;26459;-67
2022/03/11 00:15:52;;;;;;;53.92;23.35;;;;;;;-7.81;55.08;102436.53;1748824;81;27355;-68
2022/03/11 00:18:18;;;;;;;58.85;24.43;;;;;;;-7.82;55.22;102437.98;1748813;81;25719;-68
2022/03/11 00:20:45;;;;;;;63.55;26.15;;;;;;;-7.86;55.22;102431.34;1748829;82;25450;-69
2022/03/11 00:23:11;;;;;;;45.25;18.42;;;;;;;-7.87;55.49;102430.98;1748852;81;25878;-68
2022/03/11 00:25:37;;;;;;;37.42;16.73;;;;;;;-7.87;55.56;102433.13;1748941;81;25584;-69
2022/03/11 00:28:04;;;;;;;37.15;15.15;;;;;;;-7.88;55.69;102435.42;1748844;82;27358;-68
2022/03/11 00:30:31;;;;;;;37.05;13.75;;;;;;;-7.87;55.64;102433.61;1749241;81;25564;-68
2022/03/11 00:32:57;;;;;;;38.30;13.60;;;;;;;-7.89;55.71;102433.25;1751298;82;25667;-69
2022/03/11 00:35:23;;;;;;;39.58;14.75;;;;;;;-7.92;55.55;102435.32;1751124;81;25932;-69
2022/03/11 00:37:49;;;;;;;36.30;15.30;;;;;;;-7.93;55.60;102437.62;1751380;81;25704;-69
2022/03/11 00:40:16;;;;;;;36.17;14.68;;;;;;;-7.98;55.39;102436.70;1751487;81;27393;-69
2022/03/11 00:42:43;;;;;;;35.60;14.40;;;;;;;-8.00;55.42;102436.00;1750471;81;25392;-69
2022/03/11 00:45:10;;;;;;;41.70;16.07;;;;;;;-8.04;55.38;102436.39;1749101;82;25621;-68
2022/03/11 00:47:36;;;;;;;38.50;16.00;;;;;;;-8.07;55.57;102438.33;1748965;82;25929;-69
2022/03/11 00:50:04;;;;;;;45.20;17.15;;;;;;;-8.07;55.71;102439.64;1748844;81;25694;-69
2022/03/11 00:52:31;;;;;;;38.67;15.20;;;;;;;-8.11;55.61;102429.53;1748813;81;27343;-68
2022/03/11 00:54:57;;;;;;;42.88;17.00;;;;;;;-8.11;55.67;102436.92;1748773;82;25796;-68
2022/03/11 00:57:23;;;;;;;51.42;21.73;;;;;;;-8.11;55.74;102442.66;1748864;82;25665;-68
2022/03/11 00:59:50;;;;;;;55.52;21.75;;;;;;;-8.16;55.80;102440.42;1748738;82;26551;-69
2022/03/11 01:02:17;;;;;;;51.70;22.02;;;;;;;-8.21;55.80;102441.80;1740682;81;31100;-69
2022/03/11 01:04:43;;;;;;;49.48;20.25;;;;;;;-8.22;56.00;102444.91;1721775;81;27680;-69
2022/03/11 01:07:10;;;;;;;42.35;19.05;;;;;;;-8.24;56.02;102438.94;1724633;83;25660;-68
2022/03/11 01:09:36;;;;;;;43.08;18.57;;;;;;;-8.25;56.21;102438.61;1724993;83;25743;-68
2022/03/11 01:12:03;;;;;;;46.02;20.15;;;;;;;-8.26;56.08;102439.56;1724939;83;25903;-68
2022/03/11 01:14:29;;;;;;;52.73;22.02;;;;;;;-8.30;56.28;102441.62;1724920;83;25411;-69
2022/03/11 01:16:55;;;;;;;48.30;20.05;;;;;;;-8.31;56.40;102443.05;1725049;83;27465;-68
2022/03/11 01:19:23;;;;;;;49.38;21.27;;;;;;;-8.32;56.51;102436.16;1724793;83;27170;-68
2022/03/11 01:21:50;;;;;;;55.50;23.40;;;;;;;-8.36;56.54;102441.31;1724836;83;25558;-68
2022/03/11 01:24:16;;;;;;;58.65;24.47;;;;;;;-8.41;56.57;102436.94;1724865;83;26211;-68
2022/03/11 01:26:42;;;;;;;52.17;22.95;;;;;;;-8.43;56.65;102431.84;1723897;83;25695;-69
2022/03/11 01:29:08;;;;;;;53.15;20.20;;;;;;;-8.46;56.72;102429.50;1723971;83;27306;-69
2022/03/11 01:31:35;;;;;;;54.20;23.15;;;;;;;-8.49;56.84;102429.77;1725044;83;27183;-69
2022/03/11 01:34:01;;;;;;;59.65;26.80;;;;;;;-8.49;56.93;102436.32;1725076;83;25676;-69
2022/03/11 01:36:27;;;;;;;56.58;25.25;;;;;;;-8.49;56.98;102435.01;1725204;83;26607;-69
2022/03/11 01:38:56;;;;;;;52.90;24.72;;;;;;;-8.52;57.11;102434.77;1725222;83;25565;-69
2022/03/11 01:41:22;;;;;;;46.42;20.75;;;;;;;-8.52;57.25;102440.02;1725371;83;27897;-69
2022/03/11 01:43:58;;;;;;;51.00;22.32;;;;;;;-8.54;57.30;102438.50;1725059;83;27141;-69
2022/03/11 01:46:25;;;;;;;50.00;21.73;;;;;;;-8.57;57.45;102446.14;1725184;83;25601;-69
2022/03/11 01:48:51;;;;;;;46.68;22.48;;;;;;;-8.58;57.69;102454.14;1725067;83;25986;-69
2022/03/11 01:51:18;;;;;;;52.10;22.37;;;;;;;-8.61;57.61;102450.00;1725035;83;25628;-69
2022/03/11 01:53:45;;;;;;;44.45;19.65;;;;;;;-8.64;57.60;102445.83;1725100;83;27364;-69
2022/03/11 01:56:13;;;;;;;46.88;19.85;;;;;;;-8.62;57.81;102453.58;1724971;83;25593;-70
2022/03/11 01:58:40;;;;;;;42.93;19.30;;;;;;;-8.61;58.10;102454.39;1725094;83;25543;-69
2022/03/11 02:01:06;;;;;;;46.15;18.60;;;;;;;-8.62;58.05;102455.38;1725173;83;25968;-69
2022/03/11 02:03:33;;;;;;;42.30;17.15;;;;;;;-8.64;58.01;102457.63;1723238;82;25396;-70
2022/03/11 02:06:04;;;;;;;40.45;16.60;;;;;;;-8.64;58.10;102456.33;1739390;81;29520;-70
2022/03/11 02:08:31;;;;;;;36.23;14.70;;;;;;;-8.64;58.28;102454.19;1744362;82;25628;-69
2022/03/11 02:10:58;;;;;;;33.83;14.70;;;;;;;-8.65;58.54;102458.61;1744530;82;25608;-69
2022/03/11 02:13:25;;;;;;;38.30;14.40;;;;;;;-8.64;58.63;102460.75;1751245;81;26098;-69
2022/03/11 02:15:52;;;;;;;30.15;14.13;;;;;;;-8.64;58.63;102453.70;1753518;81;25633;-69
2022/03/11 02:18:18;;;;;;;36.38;14.47;;;;;;;-8.61;58.75;102457.88;1753447;81;27983;-69
2022/03/11 02:20:47;;;;;;;30.80;14.30;;;;;;;-8.60;58.88;102452.14;1734201;81;25786;-70
2022/03/11 02:23:15;;;;;;;34.13;11.27;;;;;;;-8.57;58.76;102456.64;1753842;81;25592;-70
2022/03/11 02:25:42;;;;;;;34.27;12.98;;;;;;;-8.54;58.83;102462.12;1753606;81;26439;-70
2022/03/11 02:28:08;;;;;;;36.83;14.45;;;;;;;-8.53;58.85;102458.52;1753647;81;25496;-70
2022/03/11 02:30:35;;;;;;;36.93;14.63;;;;;;;-8.52;59.07;102458.88;1753689;81;27377;-69
2022/03/11 02:33:01;;;;;;;33.15;14.35;;;;;;;-8.49;59.04;102463.88;1753614;81;25708;-69
2022/03/11 02:35:28;;;;;;;40.28;14.68;;;;;;;-8.48;59.04;102460.27;1753630;81;25657;-69
2022/03/11 02:37:54;;;;;;;36.53;15.75;;;;;;;-8.45;58.92;102457.39;1753554;81;25924;-69
2022/03/11 02:40:21;;;;;;;40.55;15.10;;;;;;;-8.46;58.85;102450.02;1753618;81;25537;-69
2022/03/11 02:42:47;;;;;;;35.50;15.30;;;;;;;-8.48;58.77;102457.65;1753679;81;27325;-69
2022/03/11 02:45:13;;;;;;;34.43;14.80;;;;;;;-8.49;58.75;102453.38;1753656;81;25594;-69
2022/03/11 02:47:39;;;;;;;33.92;14.58;;;;;;;-8.49;58.85;102455.52;1753413;81;25790;-69
2022/03/11 02:50:07;;;;;;;38.53;15.80;;;;;;;-8.51;58.70;102459.22;1753333;81;26603;-69
2022/03/11 02:52:33;;;;;;;38.55;16.00;;;;;;;-8.51;58.91;102452.66;1725350;83;26217;-69
2022/03/11 02:54:59;;;;;;;38.60;14.58;;;;;;;-8.50;59.05;102458.27;1725272;83;27287;-70
2022/03/11 02:57:26;;;;;;;33.83;14.78;;;;;;;-8.50;59.05;102450.39;1725298;81;25788;-70
2022/03/11 02:59:53;;;;;;;36.07;14.63;;;;;;;-8.50;59.08;102451.22;1725313;83;25662;-70
2022/03/11 03:02:19;;;;;;;38.80;14.95;;;;;;;-8.51;59.08;102451.34;1723151;82;26699;-70
2022/03/11 03:04:46;;;;;;;35.58;14.85;;;;;;;-8.54;59.09;102449.83;1723648;82;25410;-70
2022/03/11 03:07:12;;;;;;;40.85;16.05;;;;;;;-8.56;59.20;102445.19;1710053;83;27413;-70
2022/03/11 03:09:41;;;;;;;38.10;15.45;;;;;;;-8.57;59.15;102459.27;1709936;83;25834;-70
2022/03/11 03:12:10;;;;;;;33.00;15.30;;;;;;;-8.60;59.08;102459.52;1709921;83;25625;-70
2022/03/11 03:14:37;;;;;;;41.65;15.20;;;;;;;-8.61;58.98;102458.33;1710210;83;25748;-70
2022/03/11 03:17:06;;;;;;;40.08;15.80;;;;;;;-8.68;58.83;102454.11;1710019;83;25653;-70
2022/03/11 03:19:32;;;;;;;37.13;15.90;;;;;;;-8.71;58.20;102449.11;1710101;83;27937;-70
2022/03/11 03:21:58;;;;;;;37.78;15.38;;;;;;;-8.69;58.72;102457.68;1709924;83;26200;-70
2022/03/11 03:24:24;;;;;;;37.10;15.58;;;;;;;-8.73;58.83;102461.05;1710157;83;25565;-70
2022/03/11 03:26:50;;;;;;;35.03;15.32;;;;;;;-8.75;58.75;102462.12;1710091;83;28019;-70
2022/03/11 03:29:17;;;;;;;32.40;14.50;;;;;;;-8.80;58.85;102460.36;1709955;83;25668;-70
2022/03/11 03:31:43;;;;;;;37.08;14.93;;;;;;;-8.84;59.06;102461.92;1710063;83;27361;-70
2022/03/11 03:34:10;;;;;;;41.25;15.93;;;;;;;-8.88;59.18;102459.21;1710210;83;25480;-70
2022/03/11 03:36:36;;;;;;;36.42;14.73;;;;;;;-8.90;59.52;102457.20;1710090;83;25765;-70
2022/03/11 03:39:02;;;;;;;31.05;14.78;;;;;;;-8.90;59.61;102456.38;1710008;83;25985;-70
2022/03/11 03:41:29;;;;;;;36.33;15.55;;;;;;;-8.96;59.46;102453.77;1691480;83;25639;-70
2022/03/11 03:43:56;;;;;;;38.35;14.00;;;;;;;-8.97;59.55;102457.36;1710002;83;27881;-70
2022/03/11 03:46:22;;;;;;;32.40;14.78;;;;;;;-8.99;59.54;102459.75;1709984;83;25413;-70
2022/03/11 03:48:48;;;;;;;35.30;15.40;;;;;;;-9.02;59.67;102462.98;1710021;83;25452;-70
2022/03/11 03:51:15;;;;;;;36.68;15.08;;;;;;;-9.03;59.80;102469.66;1709987;83;25913;-70
2022/03/11 03:53:41;;;;;;;34.25;14.23;;;;;;;-9.06;59.91;102461.58;1710087;83;25630;-70
2022/03/11 03:56:07;;;;;;;35.20;14.55;;;;;;;-9.10;59.95;102470.64;1709971;83;27355;-70
2022/03/11 03:58:33;;;;;;;36.10;14.28;;;;;;;-9.15;60.09;102466.74;1709969;83;25739;-70
2022/03/11 04:00:59;;;;;;;44.53;15.90;;;;;;;-9.19;60.20;102463.54;1710034;83;25645;-70
2022/03/11 04:03:25;;;;;;;32.35;14.80;;;;;;;-9.21;60.40;102461.50;1720426;82;27950;-70
2022/03/11 04:05:51;;;;;;;38.10;14.20;;;;;;;-9.19;60.44;102467.48;1758691;80;25460;-70
2022/03/11 04:08:18;;;;;;;42.45;15.48;;;;;;;-9.17;60.33;102464.73;1783825;80;27354;-70
2022/03/11 04:10:45;;;;;;;43.65;17.45;;;;;;;-9.18;60.52;102463.87;1783725;80;25737;-70
2022/03/11 04:13:11;;;;;;;47.00;16.12;;;;;;;-9.20;60.61;102464.48;1783971;80;25675;-70
2022/03/11 04:15:37;;;;;;;36.70;15.35;;;;;;;-9.24;60.58;102462.59;1783889;80;25958;-70
2022/03/11 04:18:04;;;;;;;40.75;16.35;;;;;;;-9.25;60.71;102460.92;1783915;80;25585;-70
2022/03/11 04:20:30;;;;;;;44.80;16.62;;;;;;;-9.26;60.77;102461.04;1783894;80;27445;-70
2022/03/11 04:22:56;;;;;;;47.83;17.02;;;;;;;-9.30;60.84;102455.22;1755488;80;25704;-70
2022/03/11 04:25:23;;;;;;;50.88;17.75;;;;;;;-9.32;61.08;102461.56;1783939;80;25585;-70
2022/03/11 04:27:49;;;;;;;41.77;16.42;;;;;;;-9.37;61.18;102457.17;1783814;79;25968;-70
2022/03/11 04:30:16;;;;;;;48.90;18.48;;;;;;;-9.37;61.34;102461.10;1783865;80;25682;-70
2022/03/11 04:32:42;;;;;;;57.55;18.27;;;;;;;-9.38;61.48;102461.56;1783871;80;27307;-70
2022/03/11 04:35:09;;;;;;;53.17;19.48;;;;;;;-9.41;61.48;102457.90;1783804;80;25774;-70
2022/03/11 04:37:35;;;;;;;48.20;18.82;;;;;;;-9.41;61.59;102466.59;1783766;80;25630;-70
2022/03/11 04:40:04;;;;;;;44.65;17.25;;;;;;;-9.41;61.71;102461.34;1783793;80;25943;-70
2022/03/11 04:42:31;;;;;;;45.67;17.35;;;;;;;-9.42;61.68;102461.47;1783902;80;25719;-70
2022/03/11 04:44:58;;;;;;;39.78;16.15;;;;;;;-9.41;61.62;102457.90;1783938;80;27353;-70
2022/03/11 04:47:24;;;;;;;46.02;17.20;;;;;;;-9.40;61.65;102452.99;1783622;80;25603;-70
2022/03/11 04:49:50;;;;;;;41.73;17.00;;;;;;;-9.37;61.77;102454.55;1783906;80;25379;-70
2022/03/11 04:52:17;;;;;;;41.23;16.45;;;;;;;-9.38;61.53;102448.45;1783838;80;25935;-70
2022/03/11 04:54:44;;;;;;;39.95;16.45;;;;;;;-9.32;61.98;102456.31;1783917;80;25680;-70
2022/03/11 04:57:10;;;;;;;44.88;16.27;;;;;;;-9.33;62.02;102451.56;1783851;80;27385;-70
2022/03/11 04:59:40;;;;;;;45.05;17.52;;;;;;;-9.32;61.85;102455.00;1783782;80;25383;-70
2022/03/11 05:02:07;;;;;;;40.38;16.40;;;;;;;-9.31;61.90;102455.34;1783877;80;25545;-70
2022/03/11 05:04:33;;;;;;;39.20;16.50;;;;;;;-9.28;62.01;102457.27;1781483;79;51564;-70
2022/03/11 05:06:59;;;;;;;38.02;16.15;;;;;;;-9.28;62.00;102451.17;1783790;79;25440;-70
2022/03/11 05:09:25;;;;;;;43.95;16.85;;;;;;;-9.26;61.27;102451.86;1783826;80;27336;-70
2022/03/11 05:11:52;;;;;;;37.33;16.27;;;;;;;-9.24;61.32;102452.11;1783729;80;25775;-71
2022/03/11 05:14:18;;;;;;;41.13;16.25;;;;;;;-9.21;61.62;102454.95;1783849;80;25424;-70
2022/03/11 05:16:44;;;;;;;41.55;16.55;;;;;;;-9.20;61.76;102454.82;1784027;80;25916;-69
2022/03/11 05:19:10;;;;;;;48.68;17.00;;;;;;;-9.15;62.02;102456.25;1783966;80;25345;-69
2022/03/11 05:21:37;;;;;;;64.90;21.33;;;;;;;-9.13;61.86;102456.95;1783899;80;27308;-70
2022/03/11 05:24:05;;;;;;;60.10;19.67;;;;;;;-9.10;61.88;102456.70;1783902;80;25390;-70
2022/03/11 05:26:32;;;;;;;52.93;17.85;;;;;;;-9.09;61.69;102463.14;1783949;80;25372;-69
2022/03/11 05:29:00;;;;;;;40.75;15.35;;;;;;;-9.04;61.74;102460.97;1783900;80;26652;-69
2022/03/11 05:31:28;;;;;;;44.00;16.75;;;;;;;-9.02;61.48;102459.05;1783931;80;25371;-70
2022/03/11 05:33:55;;;;;;;38.42;15.60;;;;;;;-8.98;61.67;102458.31;1783885;80;27321;-70
2022/03/11 05:36:22;;;;;;;46.28;16.48;;;;;;;-8.93;61.91;102465.31;1783842;80;25700;-70
2022/03/11 05:38:51;;;;;;;42.35;16.25;;;;;;;-8.87;62.03;102453.02;1783924;80;25560;-70
2022/03/11 05:41:18;;;;;;;43.90;15.95;;;;;;;-8.82;61.73;102453.92;1784009;80;25927;-70
2022/03/11 05:43:44;;;;;;;37.10;16.60;;;;;;;-8.75;61.72;102456.41;1783948;80;25613;-68
2022/03/11 05:46:11;;;;;;;37.28;17.15;;;;;;;-8.67;61.98;102461.83;1755724;80;27318;-69
2022/03/11 05:48:38;;;;;;;45.05;18.80;;;;;;;-8.57;61.88;102466.31;1783783;80;25588;-69
2022/03/11 05:51:04;;;;;;;45.98;17.95;;;;;;;-8.48;62.20;102461.59;1784028;80;25619;-70
2022/03/11 05:53:31;;;;;;;45.35;17.75;;;;;;;-8.34;62.41;102472.20;1783858;80;25860;-70
2022/03/11 05:55:57;;;;;;;58.23;19.35;;;;;;;-8.18;62.75;102470.42;1783915;80;25680;-69
2022/03/11 05:58:23;;;;;;;48.28;19.10;;;;;;;-8.01;62.91;102477.67;1783997;80;28289;-69
2022/03/11 06:00:50;;;;;;;52.25;20.23;;;;;;;-7.81;63.02;102473.32;1783880;80;25658;-69
2022/03/11 06:03:17;;;;;;;46.68;18.15;;;;;;;-7.59;63.26;102481.47;1782614;79;30288;-70
2022/03/11 06:05:44;;;;;;;67.58;23.73;;;;;;;-7.36;63.22;102480.73;1779979;79;26201;-70
2022/03/11 06:08:10;;;;;;;57.83;20.88;;;;;;;-7.12;63.33;102480.82;1736509;82;25578;-69
2022/03/11 06:10:37;;;;;;;60.50;21.90;;;;;;;-6.89;63.08;102480.56;1724825;81;28157;-68
2022/03/11 06:13:03;;;;;;;60.25;21.90;;;;;;;-6.65;63.04;102484.05;1722266;82;26508;-69
2022/03/11 06:15:30;;;;;;;54.95;21.15;;;;;;;-6.41;62.72;102477.82;1724265;82;25408;-69
2022/03/11 06:17:58;;;;;;;48.85;20.57;;;;;;;-6.15;62.59;102477.19;1725939;82;25958;-70
2022/03/11 06:20:25;;;;;;;59.93;22.98;;;;;;;-5.89;62.45;102477.80;1720141;82;25652;-69
2022/03/11 06:22:54;;;;;;;49.38;21.93;;;;;;;-5.58;62.68;102485.41;1727687;82;27875;-70
2022/03/11 06:25:20;;;;;;;54.27;22.32;;;;;;;-5.22;62.94;102488.11;1722862;82;25674;-69
2022/03/11 06:27:47;;;;;;;76.05;26.97;;;;;;;-4.86;62.35;102486.77;1723115;82;25674;-69
2022/03/11 06:30:14;;;;;;;76.22;29.57;;;;;;;-4.50;61.61;102486.20;1727441;82;26024;-69
2022/03/11 06:32:43;;;;;;;55.48;21.80;;;;;;;-4.13;60.94;102484.60;1720099;82;25606;-69
2022/03/11 06:35:13;;;;;;;58.50;22.35;;;;;;;-3.71;60.59;102487.42;1726024;82;27510;-70
2022/03/11 06:40:31;;;;;;;49.95;20.15;;;;;;;-2.85;59.53;102493.69;1615833;88;25784;-71
2022/03/11 06:42:58;;;;;;;50.85;20.10;;;;;;;-2.35;58.58;102497.14;1643803;87;25917;-71
2022/03/11 06:45:25;;;;;;;47.48;19.23;;;;;;;-1.90;57.70;102498.33;1644021;87;25602;-71
2022/03/11 06:47:51;;;;;;;49.80;19.57;;;;;;;-1.51;56.22;102496.16;1644020;86;27923;-71
2022/03/11 06:50:19;;;;;;;48.42;20.02;;;;;;;-1.09;55.33;102492.77;1643775;87;25577;-71
2022/03/11 06:52:46;;;;;;;44.40;18.02;;;;;;;-0.64;54.48;102496.36;1643764;87;25615;-71
2022/03/11 06:55:15;;;;;;;50.92;19.17;;;;;;;-0.19;53.54;102492.42;1643506;87;26097;-70
2022/03/11 06:57:44;;;;;;;39.67;17.27;;;;;;;0.21;52.38;102488.16;1643817;87;25778;-71
2022/03/11 07:00:13;;;;;;;39.25;16.87;;;;;;;0.66;51.42;102496.86;1622444;87;27357;-70
2022/03/11 07:02:41;;;;;;;42.98;18.32;;;;;;;0.99;48.77;102489.21;1643686;87;25687;-71
2022/03/11 07:05:09;;;;;;;38.25;16.45;;;;;;;1.30;48.64;102490.19;1681728;83;25670;-69
2022/03/11 07:07:37;;;;;;;34.27;14.65;;;;;;;1.62;47.83;102494.64;1709541;83;28069;-69
2022/03/11 07:10:16;;;;;;;34.13;15.10;;;;;;;1.90;46.28;102498.30;1707136;83;25691;-71
2022/03/11 07:12:40;;;;;;;34.38;15.50;;;;;;;2.02;43.25;102496.19;1704400;83;27420;-70
2022/03/11 07:15:07;;;;;;;34.27;15.32;;;;;;;2.12;43.66;102498.50;1718139;82;25650;-71
2022/03/11 07:17:34;;;;;;;36.28;16.05;;;;;;;2.20;42.81;102491.67;1708794;83;25607;-70
2022/03/11 07:20:03;;;;;;;34.53;16.55;;;;;;;2.41;43.06;102497.39;1709910;83;26476;-71
2022/03/11 07:22:32;;;;;;;37.45;15.98;;;;;;;2.65;42.51;102501.07;1704988;82;25551;-72
2022/03/11 07:24:59;;;;;;;31.35;15.38;;;;;;;2.99;42.19;102507.60;1714238;82;27896;-73
2022/03/11 07:27:26;;;;;;;31.95;13.40;;;;;;;3.38;41.78;102504.34;1707094;83;25637;-72
2022/03/11 07:29:53;;;;;;;26.97;12.25;;;;;;;3.71;41.12;102502.47;1706580;82;25653;-73
2022/03/11 07:32:20;;;;;;;26.95;12.75;;;;;;;3.99;39.63;102498.69;1711076;83;25928;-73
2022/03/11 07:34:46;;;;;;;22.62;10.05;;;;;;;4.11;39.36;102501.53;1713104;83;25633;-72
2022/03/11 07:37:13;;;;;;;17.37;9.18;;;;;;;4.26;37.91;102507.45;1709349;83;27330;-71
2022/03/11 07:39:41;;;;;;;19.90;8.68;;;;;;;4.47;37.52;102508.19;1686915;83;25811;-72
2022/03/11 07:42:08;;;;;;;13.98;7.95;;;;;;;4.82;37.19;102504.59;1659672;85;25643;-72
2022/03/11 07:44:35;;;;;;;18.65;7.87;;;;;;;5.23;36.58;102510.50;1648285;85;25877;-72
2022/03/11 07:47:02;;;;;;;14.47;7.22;;;;;;;5.53;35.36;102503.11;1710129;83;25567;-71
2022/03/11 07:49:28;;;;;;;15.35;7.15;;;;;;;6.03;35.55;102506.25;1709792;83;27387;-72
2022/03/11 07:51:56;;;;;;;14.23;6.28;;;;;;;6.69;34.56;102506.77;1707973;83;25779;-72
2022/03/11 07:54:22;;;;;;;16.35;7.05;;;;;;;7.47;33.40;102502.25;1715363;83;25824;-72
2022/03/11 07:56:48;;;;;;;21.52;8.18;;;;;;;8.32;32.82;102499.18;1705433;83;26613;-71
2022/03/11 07:59:14;;;;;;;14.40;8.48;;;;;;;9.23;31.91;102499.73;1712690;83;25653;-71
2022/03/11 08:01:41;;;;;;;21.10;8.83;;;;;;;10.00;30.93;102502.20;1708364;83;27331;-71
2022/03/11 08:04:08;;;;;;;17.80;7.67;;;;;;;10.34;29.53;102498.85;1701250;83;25658;-71
2022/03/11 08:06:36;;;;;;;17.82;8.08;;;;;;;10.68;29.10;102501.92;1711087;83;25460;-72
2022/03/11 08:09:03;;;;;;;13.08;6.90;;;;;;;11.22;28.54;102496.44;1702609;83;26019;-72
2022/03/11 08:11:30;;;;;;;14.53;6.85;;;;;;;11.64;28.01;102498.33;1709888;83;25592;-71
2022/03/11 08:13:56;;;;;;;13.08;7.72;;;;;;;12.09;27.62;102498.33;1707865;83;27298;-72
2022/03/11 08:16:22;;;;;;;12.70;7.12;;;;;;;12.48;27.21;102493.00;1715347;83;25685;-72
2022/03/11 08:18:49;;;;;;;11.18;7.42;;;;;;;12.70;26.45;102492.77;1705508;83;25635;-72
2022/03/11 08:21:16;;;;;;;14.47;7.50;;;;;;;12.67;26.29;102492.78;1712322;83;26465;-73
2022/03/11 08:23:44;;;;;;;13.32;7.92;;;;;;;12.74;26.38;102489.00;1711211;83;25760;-72
2022/03/11 08:26:11;;;;;;;11.97;7.12;;;;;;;12.73;25.70;102490.07;1706396;83;27428;-72
2022/03/11 08:28:38;;;;;;;16.32;9.73;;;;;;;12.80;25.77;102491.97;1715289;83;25423;-72
2022/03/11 08:31:05;;;;;;;15.35;8.00;;;;;;;12.92;25.33;102489.80;1703976;83;25600;-72
2022/03/11 08:33:34;;;;;;;15.30;7.17;;;;;;;12.97;25.04;102493.07;1708578;83;25898;-73
2022/03/11 08:35:59;;;;;;;13.03;7.05;;;;;;;12.99;24.82;102489.02;1705911;83;25545;-73
2022/03/11 08:38:25;;;;;;;10.48;6.72;;;;;;;13.15;24.49;102497.16;1698435;83;27934;-73
2022/03/11 08:40:52;;;;;;;13.20;6.58;;;;;;;13.23;24.12;102493.90;1712085;83;25626;-73
2022/03/11 08:43:19;;;;;;;11.93;7.40;;;;;;;13.29;23.70;102490.63;1693100;83;25668;-73
2022/03/11 08:45:45;;;;;;;12.80;6.55;;;;;;;13.31;23.42;102490.59;1715390;83;26517;-73
2022/03/11 08:48:12;;;;;;;10.40;6.15;;;;;;;13.30;23.36;102497.67;1693444;83;25702;-72
2022/03/11 08:50:38;;;;;;;13.22;6.37;;;;;;;13.32;22.89;102494.98;1728981;82;27332;-73
2022/03/11 08:53:04;;;;;;;13.05;6.08;;;;;;;13.53;22.76;102493.05;1714015;82;25666;-73
2022/03/11 08:55:31;;;;;;;10.90;6.80;;;;;;;13.83;22.80;102496.78;1719359;82;25421;-74
2022/03/11 08:57:57;;;;;;;10.28;6.05;;;;;;;14.07;22.25;102494.23;1706948;84;25969;-73
2022/03/11 09:00:25;;;;;;;9.30;5.95;;;;;;;14.06;21.94;102490.43;1707033;84;25484;-72
2022/03/11 09:02:51;;;;;;;10.43;5.67;;;;;;;14.08;21.64;102495.88;1707632;83;27428;-72
2022/03/11 09:05:20;;;;;;;9.85;5.40;;;;;;;14.14;21.53;102498.02;1723477;82;31038;-72
2022/03/11 09:07:48;;;;;;;7.83;5.03;;;;;;;14.18;21.56;102489.55;1722546;83;25707;-72
2022/03/11 09:10:18;;;;;;;6.17;4.67;;;;;;;14.47;21.73;102491.05;1722637;83;25938;-72
2022/03/11 09:12:46;;;;;;;7.75;4.97;;;;;;;14.76;21.16;102490.31;1722015;83;25661;-73
2022/03/11 09:15:13;;;;;;;8.53;5.40;;;;;;;14.90;20.44;102485.86;1723557;82;27891;-72
2022/03/11 09:17:40;;;;;;;6.97;4.30;;;;;;;14.71;19.97;102490.36;1730055;82;25714;-72
2022/03/11 09:20:09;;;;;;;9.80;4.40;;;;;;;14.60;19.97;102487.45;1713045;82;25414;-72
2022/03/11 09:22:36;;;;;;;9.73;4.60;;;;;;;14.46;19.66;102479.08;1703559;84;25957;-72
2022/03/11 09:25:07;;;;;;;13.62;7.40;;;;;;;14.27;18.12;102477.53;1703491;84;25620;-71
2022/03/11 09:27:33;;;;;;;15.75;9.50;;;;;;;14.36;19.62;102471.78;1703266;84;27348;-72
2022/03/11 09:29:59;;;;;;;5.75;4.28;;;;;;;14.61;19.72;102481.73;1703249;84;25833;-73
2022/03/11 09:32:26;;;;;;;7.03;3.70;;;;;;;14.81;19.01;102473.13;1703393;84;25655;-73
2022/03/11 09:34:53;;;;;;;9.55;3.80;;;;;;;14.75;19.42;102474.53;1675333;84;26049;-73
2022/03/11 09:37:20;;;;;;;7.30;3.98;;;;;;;14.94;19.36;102472.48;1703399;84;26318;-72
2022/03/11 09:39:46;;;;;;;8.28;4.42;;;;;;;14.90;18.37;102478.25;1701022;84;27336;-72
2022/03/11 09:42:13;;;;;;;7.00;4.25;;;;;;;14.83;18.96;102477.21;1696938;84;25725;-71
2022/03/11 09:44:41;;;;;;;7.40;4.35;;;;;;;14.94;18.98;102470.56;1697049;84;25907;-72
2022/03/11 09:47:08;;;;;;;7.97;3.95;;;;;;;15.12;18.73;102461.44;1661249;86;25991;-71
2022/03/11 09:49:36;;;;;;;6.08;3.85;;;;;;;15.47;19.12;102468.42;1662413;86;25292;-70
2022/03/11 09:52:05;;;;;;;7.20;4.25;;;;;;;15.81;18.87;102470.25;1662997;86;27381;-71
2022/03/11 09:54:34;;;;;;;9.10;4.35;;;;;;;15.92;17.88;102468.23;1668977;84;25590;-71
2022/03/11 09:57:01;;;;;;;6.30;4.27;;;;;;;15.99;17.96;102472.77;1691615;84;25633;-71
2022/03/11 09:59:28;;;;;;;8.18;5.12;;;;;;;16.25;17.28;102460.95;1690827;84;26009;-71
2022/03/11 10:01:55;;;;;;;10.80;5.87;;;;;;;17.07;17.64;102463.53;1690145;84;25784;-71
2022/03/11 10:04:21;;;;;;;10.13;5.72;;;;;;;17.51;16.95;102458.88;1687331;83;27376;-71
2022/03/11 10:06:49;;;;;;;31.95;11.30;;;;;;;17.99;17.10;102459.59;1687202;85;25736;-71
2022/03/11 10:09:24;;;;;;;31.00;12.28;;;;;;;18.63;16.78;102461.69;1687204;85;25680;-71
2022/03/11 10:11:58;;;;;;;10.45;5.05;;;;;;;19.23;16.76;102455.55;1687145;84;25907;-72
2022/03/11 10:14:34;;;;;;;7.70;4.62;;;;;;;19.78;16.49;102455.14;1672398;85;25740;-72
2022/03/11 10:17:08;;;;;;;7.22;4.33;;;;;;;19.90;15.21;102450.94;1686806;85;28790;-71
2022/03/11 10:19:35;;;;;;;14.07;6.42;;;;;;;19.21;14.39;102453.69;1685882;84;25532;-71
2022/03/11 10:22:01;;;;;;;8.48;4.60;;;;;;;18.92;15.06;102454.98;1687551;84;25622;-72
2022/03/11 10:24:28;;;;;;;6.28;4.40;;;;;;;19.26;15.23;102443.11;1687129;84;25930;-72
2022/03/11 10:27:02;;;;;;;6.35;3.80;;;;;;;19.22;15.27;102445.14;1687270;85;25683;-70
2022/03/11 10:29:34;;;;;;;6.70;3.75;;;;;;;19.23;12.18;102446.74;1687382;84;27330;-71
2022/03/11 10:32:00;;;;;;;5.75;3.55;;;;;;;18.44;14.26;102452.84;1687140;84;26243;-71
2022/03/11 10:34:34;;;;;;;7.07;3.73;;;;;;;18.40;14.56;102451.83;1687560;85;25620;-71
2022/03/11 10:37:04;;;;;;;15.80;5.17;;;;;;;18.26;14.77;102439.55;1687325;85;25917;-71
2022/03/11 10:39:36;;;;;;;6.80;4.25;;;;;;;17.96;14.64;102441.03;1687187;85;25644;-71
2022/03/11 10:42:22;;;;;;;11.20;3.98;;;;;;;17.92;14.77;102438.91;1687389;84;29010;-71
2022/03/11 10:45:02;;;;;;;10.48;5.65;;;;;;;17.95;15.23;102436.13;1687374;84;25766;-71
2022/03/11 10:47:35;;;;;;;9.35;5.05;;;;;;;18.58;15.33;102433.60;1687139;84;25682;-71
2022/03/11 10:50:06;;;;;;;8.88;4.17;;;;;;;19.25;15.32;102434.08;1687382;84;25920;-71
2022/03/11 10:52:37;;;;;;;11.53;4.08;;;;;;;19.77;15.25;102427.42;1686397;84;25720;-72
2022/03/11 10:55:23;;;;;;;6.70;4.10;;;;;;;20.15;14.43;102436.43;1687144;85;27972;-72
2022/03/11 10:57:57;;;;;;;7.08;3.83;;;;;;;19.90;14.18;102436.67;1687166;85;25668;-73
2022/03/11 11:00:32;;;;;;;6.85;4.08;;;;;;;19.68;14.40;102423.84;1686919;84;25554;-72
2022/03/11 11:03:08;;;;;;;43.35;40.38;;;;;;;19.38;14.06;102423.56;1687559;85;25968;-72
2022/03/11 11:05:37;;;;;;;42.48;39.30;;;;;;;19.27;14.17;102420.05;1656498;84;40233;-72
2022/03/11 11:08:05;;;;;;;6.80;4.20;;;;;;;19.29;14.17;102424.66;1654389;86;27879;-72
2022/03/11 11:10:37;;;;;;;7.85;4.97;;;;;;;18.94;14.62;102418.45;1654377;86;25837;-72
2022/03/11 11:13:04;;;;;;;7.03;4.85;;;;;;;19.39;14.96;102419.71;1654252;86;25424;-72
2022/03/11 11:15:30;;;;;;;5.17;4.50;;;;;;;19.85;14.92;102424.44;1626700;87;26441;-72
2022/03/11 11:18:00;;;;;;;15.93;5.15;;;;;;;19.82;14.55;102417.41;1633522;87;25590;-72